Time;durP1;ratioP1;P1;durP2;ratioP2;P2;SDS_P1;SDS_P2;PMS_P1;PMS_P2;Temp;Humidity;BMP_temperature;BMP_pressure;BME280_temperature;BME280_humidity;BME280_pressure;Samples;Min_cycle;Max_cycle;Signal;HPM_P1;HPM_P2
2022/09/17 00:02:24;;;;;;;2.42;0.65;;;8.10;99.90;;;;;;4990104;28;20037;-60
2022/09/17 00:04:50;;;;;;;3.70;0.65;;;8.10;99.90;;;;;;4986252;28;20160;-60
2022/09/17 00:07:16;;;;;;;1.45;0.45;;;8.10;99.90;;;;;;4988938;28;20030;-60
2022/09/17 00:09:43;;;;;;;2.72;0.35;;;8.10;99.90;;;;;;4985617;28;20045;-61
2022/09/17 00:12:09;;;;;;;1.27;1.10;;;8.10;99.90;;;;;;4988988;28;20039;-60
2022/09/17 00:14:35;;;;;;;1.02;0.30;;;8.20;99.90;;;;;;4988767;28;20023;-60
2022/09/17 00:17:00;;;;;;;0.73;0.40;;;8.20;99.90;;;;;;4987841;28;20482;-61
2022/09/17 00:19:26;;;;;;;0.95;0.40;;;8.20;99.90;;;;;;4988490;28;20434;-61
2022/09/17 00:21:52;;;;;;;0.20;0.20;;;8.20;99.90;;;;;;4988044;28;20034;-61
2022/09/17 00:24:19;;;;;;;0.70;0.30;;;8.20;99.90;;;;;;4985743;28;20041;-60
2022/09/17 00:26:46;;;;;;;3.08;0.43;;;8.20;99.90;;;;;;4986161;28;20109;-60
2022/09/17 00:29:12;;;;;;;0.82;0.43;;;8.20;99.90;;;;;;4989356;28;20027;-60
2022/09/17 00:31:38;;;;;;;0.77;0.30;;;8.20;99.90;;;;;;4987816;28;20033;-60
2022/09/17 00:34:05;;;;;;;2.10;0.40;;;8.30;99.90;;;;;;4986897;28;20117;-60
2022/09/17 00:36:34;;;;;;;1.27;0.60;;;8.30;99.90;;;;;;4983181;28;20052;-60
2022/09/17 00:39:01;;;;;;;0.40;0.20;;;8.20;99.90;;;;;;4987587;28;20393;-60
2022/09/17 00:41:29;;;;;;;0.40;0.30;;;8.20;99.90;;;;;;4989208;28;20019;-59
2022/09/17 00:43:57;;;;;;;1.63;0.40;;;8.20;99.90;;;;;;4984127;28;20050;-61
2022/09/17 00:46:34;;;;;;;0.70;0.45;;;8.20;99.90;;;;;;4992491;28;20105;-60
2022/09/17 00:49:04;;;;;;;0.90;0.50;;;8.20;99.90;;;;;;4990553;28;20026;-60
2022/09/17 00:51:36;;;;;;;5.60;0.68;;;8.10;99.90;;;;;;4991645;28;20109;-60
2022/09/17 00:54:04;;;;;;;1.27;0.40;;;8.10;99.90;;;;;;4990786;28;20067;-60
2022/09/17 00:56:33;;;;;;;2.25;0.40;;;8.00;99.90;;;;;;4991656;28;20397;-61
2022/09/17 00:59:01;;;;;;;1.27;0.57;;;7.90;99.90;;;;;;4991300;28;20034;-60
2022/09/17 01:01:27;;;;;;;1.83;0.43;;;7.90;99.90;;;;;;4988292;28;20035;-61
2022/09/17 01:03:53;;;;;;;1.05;0.30;;;7.90;99.90;;;;;;4990965;28;20026;-61
2022/09/17 01:06:45;;;;;;;1.23;0.45;;;7.90;99.90;;;;;;4992722;28;20037;-61
2022/09/17 01:09:22;;;;;;;0.52;0.32;;;7.80;99.90;;;;;;4987133;28;20034;-61
2022/09/17 01:11:51;;;;;;;0.80;0.50;;;7.80;99.90;;;;;;4981056;28;20089;-61
2022/09/17 01:14:26;;;;;;;1.80;0.63;;;7.70;99.90;;;;;;4990700;28;20034;-61
2022/09/17 01:17:00;;;;;;;2.78;0.43;;;7.70;99.90;;;;;;4988151;28;20026;-61
2022/09/17 01:19:39;;;;;;;0.93;0.20;;;7.70;99.90;;;;;;4990575;28;20041;-61
2022/09/17 01:22:05;;;;;;;1.67;0.50;;;7.60;99.90;;;;;;4992465;28;20455;-60
2022/09/17 01:24:49;;;;;;;2.13;0.43;;;7.60;99.90;;;;;;4987169;28;20054;-60
2022/09/17 01:27:42;;;;;;;1.83;0.47;;;7.70;99.90;;;;;;4990487;28;20394;-60
2022/09/17 01:30:22;;;;;;;;;;;7.60;99.90;;;;;;4986596;28;20479;-61
2022/09/17 01:33:00;;;;;;;2.30;0.50;;;7.50;99.90;;;;;;4988531;28;20012;-60
2022/09/17 01:35:37;;;;;;;0.50;0.30;;;7.40;99.90;;;;;;4991593;28;20442;-61
2022/09/17 01:38:34;;;;;;;3.55;0.45;;;7.50;99.90;;;;;;4987544;28;20041;-61
2022/09/17 01:41:20;;;;;;;0.52;0.50;;;7.40;99.90;;;;;;4990178;28;20084;-59
2022/09/17 01:43:56;;;;;;;1.13;0.43;;;7.50;99.90;;;;;;4984095;28;20047;-61
2022/09/17 01:46:29;;;;;;;2.42;0.43;;;7.50;99.90;;;;;;4991335;28;20096;-60
2022/09/17 01:48:57;;;;;;;;;;;7.50;99.90;;;;;;4989728;28;20041;-60
2022/09/17 01:51:26;;;;;;;1.67;0.30;;;7.50;99.90;;;;;;4992060;28;19952;-60
2022/09/17 01:53:59;;;;;;;1.95;0.40;;;7.50;99.90;;;;;;4990024;28;20487;-60
2022/09/17 01:56:39;;;;;;;0.82;0.40;;;7.60;99.90;;;;;;4987902;28;20045;-61
2022/09/17 01:59:43;;;;;;;3.40;0.30;;;7.50;99.90;;;;;;4987151;28;20110;-60
2022/09/17 02:02:26;;;;;;;1.75;0.47;;;7.50;99.90;;;;;;4946553;29;20042;-61
2022/09/17 02:05:09;;;;;;;1.75;0.40;;;7.40;99.90;;;;;;4946987;28;20074;-61
2022/09/17 02:07:42;;;;;;;0.70;0.30;;;7.40;99.90;;;;;;4950611;29;20035;-60
2022/09/17 02:10:17;;;;;;;1.35;0.38;;;7.30;99.90;;;;;;4948527;28;20118;-60
2022/09/17 02:12:50;;;;;;;2.40;0.45;;;7.20;99.90;;;;;;4948178;29;20080;-61
2022/09/17 02:15:21;;;;;;;0.95;0.40;;;7.20;99.90;;;;;;4950581;29;20027;-61
2022/09/17 02:18:10;;;;;;;2.20;0.57;;;7.20;99.90;;;;;;4948530;29;20039;-61
2022/09/17 02:20:45;;;;;;;0.30;0.20;;;7.30;99.90;;;;;;4940679;28;20415;-60
2022/09/17 02:23:19;;;;;;;1.00;0.32;;;7.30;99.90;;;;;;4950769;29;20495;-60
2022/09/17 02:25:55;;;;;;;1.50;0.38;;;7.30;99.90;;;;;;4948809;29;20040;-60
2022/09/17 02:28:38;;;;;;;0.70;0.40;;;7.20;99.90;;;;;;4947046;28;20039;-61
2022/09/17 02:31:04;;;;;;;1.42;0.65;;;7.20;99.90;;;;;;4948132;28;20037;-60
2022/09/17 02:33:33;;;;;;;1.17;0.40;;;7.20;99.90;;;;;;4950183;28;20055;-61
2022/09/17 02:36:00;;;;;;;4.53;0.50;;;7.20;99.90;;;;;;4948470;29;20106;-61
2022/09/17 02:38:29;;;;;;;1.08;0.30;;;7.20;99.90;;;;;;4954547;28;20035;-60
2022/09/17 02:41:18;;;;;;;0.85;0.40;;;7.20;99.90;;;;;;4986885;28;20371;-60
2022/09/17 02:43:57;;;;;;;0.95;0.55;;;7.20;99.90;;;;;;4983386;28;20478;-59
2022/09/17 02:46:42;;;;;;;1.63;0.40;;;7.30;99.90;;;;;;4990937;28;20028;-59
2022/09/17 02:49:48;;;;;;;1.85;0.20;;;7.30;99.90;;;;;;4987559;28;20031;-60
2022/09/17 02:52:31;;;;;;;1.17;0.40;;;7.30;99.90;;;;;;4985239;28;20557;-60
2022/09/17 02:55:16;;;;;;;1.02;0.52;;;7.40;99.90;;;;;;4979943;28;20106;-60
2022/09/17 02:58:15;;;;;;;0.85;0.20;;;7.40;99.90;;;;;;4985202;28;20026;-60
2022/09/17 03:00:42;;;;;;;0.40;0.30;;;7.50;99.90;;;;;;4989012;28;20031;-60
2022/09/17 03:03:15;;;;;;;2.13;0.40;;;7.50;99.90;;;;;;4986124;28;20026;-61
2022/09/17 03:05:43;;;;;;;2.38;0.50;;;7.40;99.90;;;;;;4985643;28;20615;-60
2022/09/17 03:08:13;;;;;;;1.75;0.28;;;7.40;99.90;;;;;;4989294;28;20026;-60
2022/09/17 03:10:40;;;;;;;1.00;0.20;;;7.30;99.90;;;;;;4986003;28;20061;-62
2022/09/17 03:13:06;;;;;;;1.92;0.75;;;7.30;99.90;;;;;;4980505;28;20038;-60
2022/09/17 03:15:32;;;;;;;1.27;0.35;;;7.30;99.90;;;;;;4986006;28;20035;-60
2022/09/17 03:17:58;;;;;;;0.90;0.30;;;7.30;99.90;;;;;;4985770;28;20030;-59
2022/09/17 03:20:24;;;;;;;0.95;0.40;;;7.30;99.90;;;;;;4988335;28;20489;-60
2022/09/17 03:22:51;;;;;;;1.05;0.50;;;7.20;99.90;;;;;;4988675;28;20035;-59
2022/09/17 03:25:16;;;;;;;0.80;0.28;;;7.20;99.90;;;;;;4988585;28;20035;-59
2022/09/17 03:27:42;;;;;;;1.23;0.55;;;7.10;99.90;;;;;;4983389;28;20092;-59
2022/09/17 03:30:08;;;;;;;1.08;0.32;;;7.10;99.90;;;;;;4990010;28;20034;-60
2022/09/17 03:32:34;;;;;;;0.63;0.28;;;7.00;99.90;;;;;;4987750;28;20168;-60
2022/09/17 03:35:00;;;;;;;1.45;0.47;;;6.90;99.90;;;;;;4985674;28;20109;-60
2022/09/17 03:37:25;;;;;;;2.65;0.55;;;6.90;99.90;;;;;;4984966;28;20037;-60
2022/09/17 03:39:51;;;;;;;1.33;0.60;;;6.90;99.90;;;;;;4985563;28;20026;-60
2022/09/17 03:42:17;;;;;;;0.60;0.40;;;6.80;99.90;;;;;;4986063;28;20054;-59
2022/09/17 03:44:43;;;;;;;3.47;0.98;;;6.80;99.90;;;;;;4984835;28;20065;-60
2022/09/17 03:47:08;;;;;;;1.65;0.68;;;6.80;99.90;;;;;;4986414;28;20406;-60
2022/09/17 03:49:34;;;;;;;1.25;0.40;;;6.70;99.90;;;;;;4987015;28;20026;-60
2022/09/17 03:52:00;;;;;;;1.67;0.52;;;6.70;99.90;;;;;;4985117;28;20113;-60
2022/09/17 03:54:26;;;;;;;1.25;0.35;;;6.70;99.90;;;;;;4985588;28;20034;-60
2022/09/17 03:56:51;;;;;;;1.52;0.40;;;6.60;99.90;;;;;;4985123;28;20033;-60
2022/09/17 03:59:17;;;;;;;1.10;0.65;;;6.60;99.90;;;;;;4986306;28;20113;-60
2022/09/17 04:01:43;;;;;;;1.95;0.35;;;6.60;99.90;;;;;;4985035;28;20026;-60
2022/09/17 04:04:08;;;;;;;4.78;1.02;;;6.60;99.90;;;;;;4986669;28;20126;-61
2022/09/17 04:06:34;;;;;;;1.08;0.32;;;6.60;99.90;;;;;;4986526;28;20033;-60
2022/09/17 04:09:02;;;;;;;2.28;0.82;;;6.60;99.90;;;;;;4984985;28;20035;-59
2022/09/17 04:11:28;;;;;;;0.95;0.35;;;6.60;99.90;;;;;;4987620;28;20053;-59
2022/09/17 04:13:54;;;;;;;0.82;0.22;;;6.60;99.90;;;;;;4982968;28;20379;-60
2022/09/17 04:16:20;;;;;;;0.75;0.43;;;6.60;99.90;;;;;;4986143;28;20031;-60
2022/09/17 04:18:45;;;;;;;1.30;0.47;;;6.60;99.90;;;;;;4983716;28;20061;-61
2022/09/17 04:21:11;;;;;;;4.38;0.82;;;6.60;99.90;;;;;;4989350;28;20034;-60
2022/09/17 04:23:37;;;;;;;1.17;0.45;;;6.60;99.90;;;;;;4988849;28;20088;-61
2022/09/17 04:26:03;;;;;;;0.40;0.30;;;6.60;99.90;;;;;;4987700;28;20106;-60
2022/09/17 04:28:29;;;;;;;0.82;0.40;;;6.60;99.90;;;;;;4990852;28;20109;-61
2022/09/17 04:30:56;;;;;;;3.38;0.50;;;6.60;99.90;;;;;;4988486;28;20034;-61
2022/09/17 04:33:22;;;;;;;0.75;0.30;;;6.50;99.90;;;;;;4989723;28;20026;-61
2022/09/17 04:35:48;;;;;;;2.15;0.40;;;6.50;99.90;;;;;;4988644;28;20026;-61
2022/09/17 04:38:17;;;;;;;1.75;0.35;;;6.50;99.90;;;;;;4991005;28;20061;-61
2022/09/17 04:40:43;;;;;;;0.20;0.20;;;6.40;99.90;;;;;;4988063;28;20038;-61
2022/09/17 04:43:10;;;;;;;1.67;0.52;;;6.40;99.90;;;;;;4989088;28;20045;-61
2022/09/17 04:45:36;;;;;;;0.93;0.40;;;6.30;99.90;;;;;;4990630;28;20045;-61
2022/09/17 04:48:02;;;;;;;1.92;0.52;;;6.30;99.90;;;;;;4985250;28;20026;-61
2022/09/17 04:50:28;;;;;;;1.50;0.40;;;6.30;99.90;;;;;;4989625;28;20033;-61
2022/09/17 04:52:54;;;;;;;0.90;0.38;;;6.40;99.90;;;;;;4988095;28;20038;-60
2022/09/17 04:55:20;;;;;;;1.23;0.52;;;6.30;99.90;;;;;;4988788;28;20026;-60
2022/09/17 04:57:51;;;;;;;0.82;0.30;;;6.30;99.90;;;;;;5002700;28;20033;-60
2022/09/17 05:00:18;;;;;;;1.92;0.50;;;6.30;99.90;;;;;;4991903;28;20023;-60
2022/09/17 05:02:45;;;;;;;1.13;0.63;;;6.30;99.90;;;;;;4988888;28;20035;-60
2022/09/17 05:05:11;;;;;;;0.82;0.40;;;6.40;99.90;;;;;;4992700;28;20073;-60
2022/09/17 05:07:38;;;;;;;1.52;0.30;;;6.40;99.90;;;;;;4992448;28;20108;-60
2022/09/17 05:10:05;;;;;;;1.02;0.55;;;6.50;99.90;;;;;;4985061;28;20030;-59
2022/09/17 05:12:31;;;;;;;0.88;0.40;;;6.50;99.90;;;;;;4982372;28;20030;-60
2022/09/17 05:14:56;;;;;;;4.65;0.75;;;6.50;99.90;;;;;;4990690;28;20041;-60
2022/09/17 05:17:22;;;;;;;2.60;0.60;;;6.50;99.90;;;;;;4992349;28;20040;-60
2022/09/17 05:19:48;;;;;;;0.65;0.47;;;6.60;99.90;;;;;;4989339;28;20034;-60
2022/09/17 05:22:13;;;;;;;2.03;0.50;;;6.60;99.90;;;;;;4992435;28;20030;-60
2022/09/17 05:24:39;;;;;;;2.90;0.30;;;6.70;99.90;;;;;;4984513;28;20026;-59
2022/09/17 05:27:07;;;;;;;0.70;0.10;;;6.70;99.90;;;;;;4991502;28;20023;-60
2022/09/17 05:29:33;;;;;;;2.80;0.63;;;6.70;99.90;;;;;;4987722;28;20072;-60
2022/09/17 05:31:59;;;;;;;0.93;0.40;;;6.80;99.90;;;;;;4986519;28;20061;-60
2022/09/17 05:34:24;;;;;;;0.70;0.28;;;6.80;99.90;;;;;;4990331;28;20039;-60
2022/09/17 05:36:50;;;;;;;0.93;0.47;;;6.80;99.90;;;;;;4988779;28;20066;-60
2022/09/17 05:39:16;;;;;;;1.15;0.38;;;6.90;99.90;;;;;;4991474;28;20077;-60
2022/09/17 05:41:42;;;;;;;1.38;0.60;;;7.00;99.90;;;;;;4990245;28;20029;-60
2022/09/17 05:44:08;;;;;;;4.68;0.30;;;7.00;99.90;;;;;;4983646;28;20137;-60
2022/09/17 05:46:34;;;;;;;0.20;0.20;;;7.10;99.90;;;;;;4990925;28;20018;-59
2022/09/17 05:49:00;;;;;;;5.13;1.58;;;7.00;99.90;;;;;;4990387;28;20022;-60
2022/09/17 05:51:25;;;;;;;1.15;0.30;;;7.10;99.90;;;;;;4991568;28;20370;-60
2022/09/17 05:53:54;;;;;;;0.85;0.30;;;7.10;99.90;;;;;;4991947;28;20088;-60
2022/09/17 05:56:20;;;;;;;1.65;0.82;;;7.20;99.90;;;;;;4989368;28;20026;-60
2022/09/17 05:58:46;;;;;;;2.08;0.52;;;7.30;99.90;;;;;;4987453;28;20030;-60
2022/09/17 06:01:15;;;;;;;1.83;0.63;;;7.30;99.90;;;;;;4991909;28;20080;-60
2022/09/17 06:03:41;;;;;;;0.50;0.30;;;7.40;99.90;;;;;;4988207;28;20117;-59
2022/09/17 06:06:07;;;;;;;0.88;0.40;;;7.40;99.90;;;;;;4988110;28;20041;-60
2022/09/17 06:08:35;;;;;;;2.67;0.60;;;7.40;99.90;;;;;;4988110;28;20534;-60
2022/09/17 06:11:08;;;;;;;2.13;0.45;;;7.40;99.90;;;;;;4987550;28;20084;-59
2022/09/17 06:13:34;;;;;;;1.38;0.45;;;7.30;99.90;;;;;;4987145;28;20038;-60
2022/09/17 06:16:01;;;;;;;0.35;0.35;;;7.20;99.90;;;;;;4986493;28;20054;-60
2022/09/17 06:18:29;;;;;;;3.35;0.57;;;7.20;99.90;;;;;;4988185;28;20026;-60
2022/09/17 06:20:59;;;;;;;2.33;0.40;;;7.20;99.90;;;;;;4985608;28;20029;-60
2022/09/17 06:23:26;;;;;;;0.85;0.35;;;7.20;99.90;;;;;;4985554;28;20026;-60
2022/09/17 06:25:59;;;;;;;0.77;0.55;;;7.20;99.90;;;;;;4986024;28;20474;-60
2022/09/17 06:28:25;;;;;;;1.27;0.40;;;7.20;99.90;;;;;;4987297;28;20029;-60
2022/09/17 06:30:53;;;;;;;1.52;0.50;;;7.30;99.90;;;;;;4986167;28;20109;-59
2022/09/17 06:33:20;;;;;;;3.22;0.50;;;7.30;99.90;;;;;;4988189;28;20157;-60
2022/09/17 06:35:46;;;;;;;2.13;0.40;;;7.30;99.90;;;;;;4988389;28;20069;-60
2022/09/17 06:38:12;;;;;;;2.63;0.50;;;7.30;99.90;;;;;;4990207;28;20034;-60
2022/09/17 06:40:38;;;;;;;1.55;0.93;;;7.30;99.90;;;;;;4989950;28;20027;-60
2022/09/17 06:43:04;;;;;;;0.88;0.52;;;7.30;99.90;;;;;;4988969;28;20469;-61
2022/09/17 06:45:30;;;;;;;0.82;0.40;;;7.30;99.90;;;;;;4987086;28;20038;-62
2022/09/17 06:47:56;;;;;;;0.63;0.25;;;7.40;99.90;;;;;;4989203;28;20036;-62
2022/09/17 06:50:22;;;;;;;1.15;0.60;;;7.40;99.90;;;;;;4987239;28;20026;-61
2022/09/17 06:52:54;;;;;;;2.45;0.77;;;7.50;99.90;;;;;;4988282;28;20084;-60
2022/09/17 06:55:20;;;;;;;1.73;0.50;;;7.50;99.90;;;;;;4990594;28;20023;-61
2022/09/17 06:57:46;;;;;;;0.90;0.40;;;7.60;99.90;;;;;;4987556;28;20117;-63
2022/09/17 07:00:14;;;;;;;0.90;0.50;;;7.60;99.90;;;;;;4990889;28;20038;-61
2022/09/17 07:02:39;;;;;;;2.35;0.98;;;7.60;99.90;;;;;;4988440;28;20423;-60
2022/09/17 07:05:06;;;;;;;2.17;0.40;;;7.60;99.90;;;;;;4990510;28;20037;-61
2022/09/17 07:07:34;;;;;;;1.80;0.52;;;7.60;99.90;;;;;;4990160;28;20446;-60
2022/09/17 07:10:00;;;;;;;1.15;0.50;;;7.70;99.90;;;;;;4987706;28;20026;-61
2022/09/17 07:12:26;;;;;;;1.67;0.52;;;7.70;99.90;;;;;;4990104;28;20442;-60
2022/09/17 07:14:52;;;;;;;2.65;0.40;;;7.70;99.90;;;;;;4989381;28;20069;-60
2022/09/17 07:17:18;;;;;;;2.75;0.63;;;7.80;99.90;;;;;;4991006;28;20030;-60
2022/09/17 07:19:44;;;;;;;2.92;0.50;;;7.90;99.90;;;;;;4994973;28;20060;-59
2022/09/17 07:22:09;;;;;;;1.63;0.57;;;7.90;99.90;;;;;;4990317;28;20497;-60
2022/09/17 07:24:35;;;;;;;1.27;0.60;;;8.00;99.90;;;;;;4990098;28;20043;-60
2022/09/17 07:27:01;;;;;;;0.28;0.25;;;8.00;99.90;;;;;;4986926;28;20078;-60
2022/09/17 07:29:27;;;;;;;1.75;0.40;;;8.00;99.90;;;;;;4989327;28;20033;-60
2022/09/17 07:31:53;;;;;;;1.23;0.52;;;8.10;99.90;;;;;;4987696;28;20474;-61
2022/09/17 07:34:19;;;;;;;3.72;1.23;;;8.10;99.90;;;;;;4989186;28;20034;-60
2022/09/17 07:36:45;;;;;;;2.03;0.70;;;8.20;99.90;;;;;;4987287;28;20041;-60
2022/09/17 07:39:12;;;;;;;1.38;0.40;;;8.20;99.90;;;;;;4990033;28;20037;-61
2022/09/17 07:41:39;;;;;;;0.52;0.30;;;8.30;99.90;;;;;;4989481;28;20030;-60
2022/09/17 07:44:08;;;;;;;1.42;0.28;;;8.30;99.90;;;;;;4989151;28;20042;-60
2022/09/17 07:46:34;;;;;;;0.85;0.50;;;8.30;99.90;;;;;;4989583;28;20497;-60
2022/09/17 07:49:01;;;;;;;1.70;0.38;;;8.40;99.90;;;;;;4987802;28;20080;-60
2022/09/17 07:51:27;;;;;;;2.60;0.65;;;8.40;99.90;;;;;;4989515;28;20137;-60
2022/09/17 07:53:58;;;;;;;1.73;0.60;;;8.40;99.90;;;;;;4983208;28;20038;-60
2022/09/17 07:56:25;;;;;;;0.50;0.40;;;8.40;99.90;;;;;;4993113;28;20030;-60
2022/09/17 07:58:51;;;;;;;0.55;0.45;;;8.50;99.90;;;;;;4988341;28;20056;-60
2022/09/17 08:01:19;;;;;;;1.38;0.57;;;8.50;99.90;;;;;;4993008;28;20026;-61
2022/09/17 08:03:50;;;;;;;2.55;0.60;;;8.60;99.90;;;;;;4990821;28;20023;-61
2022/09/17 08:06:19;;;;;;;2.25;0.52;;;8.70;99.90;;;;;;4991653;28;20068;-60
2022/09/17 08:08:45;;;;;;;1.70;0.50;;;8.80;99.90;;;;;;4991572;28;20084;-61
2022/09/17 08:11:14;;;;;;;0.47;0.38;;;8.80;99.90;;;;;;4992515;28;20371;-61
2022/09/17 08:13:40;;;;;;;1.88;0.60;;;8.90;99.90;;;;;;4980447;28;20081;-60
2022/09/17 08:16:12;;;;;;;2.05;0.57;;;9.00;99.90;;;;;;4992948;28;20034;-60
2022/09/17 08:18:38;;;;;;;1.77;0.40;;;9.10;99.90;;;;;;4992276;28;20030;-60
2022/09/17 08:21:06;;;;;;;0.82;0.50;;;9.20;99.90;;;;;;4990269;28;20097;-60
2022/09/17 08:23:35;;;;;;;1.02;0.52;;;9.30;99.90;;;;;;4993221;28;20490;-60
2022/09/17 08:26:01;;;;;;;2.35;0.60;;;9.40;99.90;;;;;;4985904;28;20033;-58
2022/09/17 08:28:29;;;;;;;3.05;0.52;;;9.50;99.90;;;;;;4991727;28;20097;-61
2022/09/17 08:31:07;;;;;;;1.00;0.32;;;9.60;99.90;;;;;;4991006;28;20030;-60
2022/09/17 08:33:38;;;;;;;3.80;0.50;;;9.70;99.90;;;;;;4986848;28;20406;-60
2022/09/17 08:36:05;;;;;;;1.73;0.40;;;9.80;99.90;;;;;;4988081;28;20470;-59
2022/09/17 08:38:32;;;;;;;1.92;0.30;;;9.90;99.90;;;;;;4987272;28;20034;-59
2022/09/17 08:41:13;;;;;;;2.20;0.35;;;10.00;99.90;;;;;;4989651;28;20671;-59
2022/09/17 08:44:00;;;;;;;7.22;0.43;;;10.10;99.90;;;;;;4983829;28;20042;-59
2022/09/17 08:46:30;;;;;;;0.90;0.38;;;10.20;99.90;;;;;;4991429;28;20086;-60
2022/09/17 08:49:15;;;;;;;2.35;0.32;;;10.30;99.90;;;;;;4988011;28;20505;-59
2022/09/17 08:52:08;;;;;;;5.35;0.95;;;10.50;99.90;;;;;;4987198;28;20033;-59
2022/09/17 08:55:16;;;;;;;1.77;0.68;;;10.60;99.90;;;;;;4991664;28;20505;-59
2022/09/17 08:58:22;;;;;;;1.70;0.60;;;10.60;99.90;;;;;;4982054;28;20080;-59
2022/09/17 09:01:06;;;;;;;4.07;0.70;;;10.80;99.90;;;;;;4990142;28;20033;-60
2022/09/17 09:03:59;;;;;;;1.40;0.22;;;10.90;99.90;;;;;;4986422;28;20045;-60
2022/09/17 09:06:31;;;;;;;1.15;0.35;;;11.00;99.90;;;;;;4991448;28;20026;-59
2022/09/17 09:09:04;;;;;;;1.77;0.55;;;11.10;99.90;;;;;;4988819;28;20058;-61
2022/09/17 09:11:31;;;;;;;1.20;0.32;;;11.20;99.90;;;;;;5006934;28;20027;-59
2022/09/17 09:14:25;;;;;;;0.90;0.63;;;11.40;99.90;;;;;;4990408;28;20640;-60
2022/09/17 09:16:52;;;;;;;0.32;0.13;;;11.50;99.90;;;;;;4989035;28;20091;-60
2022/09/17 09:19:26;;;;;;;2.55;0.50;;;11.50;99.90;;;;;;4989228;28;20502;-60
2022/09/17 09:22:16;;;;;;;1.63;0.45;;;11.60;99.90;;;;;;4989330;28;20026;-60
2022/09/17 09:24:51;;;;;;;2.17;0.52;;;11.70;99.90;;;;;;4989253;28;20019;-60
2022/09/17 09:27:26;;;;;;;2.95;0.73;;;11.70;99.90;;;;;;4990899;28;20076;-66
2022/09/17 09:30:05;;;;;;;0.90;0.40;;;11.80;99.90;;;;;;4988672;28;20030;-65
2022/09/17 09:32:46;;;;;;;1.00;0.60;;;11.90;99.90;;;;;;4989358;28;20030;-64
2022/09/17 09:35:19;;;;;;;2.97;0.50;;;12.00;99.90;;;;;;4984735;28;20394;-66
2022/09/17 09:38:02;;;;;;;2.25;0.32;;;12.10;99.90;;;;;;4989006;28;20065;-66
2022/09/17 09:40:54;;;;;;;1.33;0.28;;;12.20;99.90;;;;;;4992068;28;20023;-65
2022/09/17 09:43:36;;;;;;;3.20;0.73;;;12.30;99.90;;;;;;4991397;28;20406;-65
2022/09/17 09:46:27;;;;;;;0.82;0.30;;;12.40;99.90;;;;;;4988882;28;20031;-66
2022/09/17 09:49:23;;;;;;;4.32;0.52;;;12.50;99.90;;;;;;4989948;28;20455;-66
2022/09/17 09:52:03;;;;;;;1.08;0.10;;;12.60;99.90;;;;;;4986252;28;20026;-66
2022/09/17 09:55:04;;;;;;;2.75;0.38;;;12.70;99.90;;;;;;4990525;28;20037;-66
2022/09/17 09:57:59;;;;;;;2.63;0.17;;;12.80;99.90;;;;;;4965382;28;20026;-65
2022/09/17 10:00:31;;;;;;;0.80;0.20;;;13.00;99.90;;;;;;4942480;28;20106;-67
2022/09/17 10:03:17;;;;;;;2.70;0.30;;;13.10;99.90;;;;;;4967038;28;20081;-66
2022/09/17 10:06:00;;;;;;;1.58;0.32;;;13.10;99.90;;;;;;4963697;28;20034;-66
2022/09/17 10:08:28;;;;;;;6.75;5.82;;;13.30;99.90;;;;;;4967323;28;20027;-67
2022/09/17 10:10:55;;;;;;;0.60;0.40;;;13.30;99.90;;;;;;4961268;28;20113;-66
2022/09/17 10:13:21;;;;;;;5.80;0.40;;;13.50;99.90;;;;;;4963968;28;20043;-66
2022/09/17 10:15:47;;;;;;;4.10;0.28;;;13.50;99.90;;;;;;4959186;28;20461;-66
2022/09/17 10:18:23;;;;;;;1.88;0.43;;;13.60;99.90;;;;;;4965358;28;20130;-66
2022/09/17 10:20:59;;;;;;;1.05;0.20;;;13.70;99.90;;;;;;4955333;28;20026;-66
2022/09/17 10:23:32;;;;;;;0.88;0.22;;;14.00;99.90;;;;;;4959134;28;20031;-66
2022/09/17 10:25:58;;;;;;;3.50;0.63;;;14.10;99.90;;;;;;4963211;28;20513;-66
2022/09/17 10:28:30;;;;;;;2.38;0.13;;;14.20;99.90;;;;;;4952615;28;20031;-66
2022/09/17 10:31:03;;;;;;;1.07;0.10;;;14.20;99.90;;;;;;4963654;28;20516;-66
2022/09/17 10:33:30;;;;;;;1.02;0.10;;;14.20;99.90;;;;;;4989643;28;20040;-66
2022/09/17 10:36:01;;;;;;;3.28;1.70;;;14.30;99.90;;;;;;4989157;28;20550;-65
2022/09/17 10:38:46;;;;;;;3.83;0.30;;;14.40;99.90;;;;;;4990945;28;20030;-65
2022/09/17 10:41:23;;;;;;;0.80;0.20;;;14.40;99.90;;;;;;4990042;28;20113;-65
2022/09/17 10:43:50;;;;;;;1.48;0.30;;;14.60;99.90;;;;;;4988917;28;20387;-64
2022/09/17 10:46:28;;;;;;;3.13;0.20;;;14.70;99.90;;;;;;4990949;28;20030;-65
2022/09/17 10:49:07;;;;;;;0.73;0.20;;;14.60;99.90;;;;;;4988909;28;20034;-65
2022/09/17 10:51:33;;;;;;;0.80;0.30;;;14.80;99.90;;;;;;4987887;28;20430;-65
2022/09/17 10:54:03;;;;;;;1.63;0.50;;;15.10;99.90;;;;;;4988183;28;20053;-68
2022/09/17 10:56:35;;;;;;;0.75;0.20;;;15.30;99.90;;;;;;4989786;28;20109;-66
2022/09/17 10:59:19;;;;;;;0.80;0.30;;;15.50;99.90;;;;;;4988935;28;20030;-65
2022/09/17 11:02:09;;;;;;;3.25;0.20;;;15.50;99.90;;;;;;4987241;28;20050;-65
2022/09/17 11:04:49;;;;;;;1.38;0.20;;;15.50;99.90;;;;;;4987562;28;20551;-65
2022/09/17 11:07:53;;;;;;;0.68;0.22;;;15.60;99.90;;;;;;4987222;28;20046;-65
2022/09/17 11:10:28;;;;;;;0.20;0.20;;;16.20;99.90;;;;;;4987948;28;20030;-65
2022/09/17 11:13:03;;;;;;;0.38;0.20;;;16.80;98.00;;;;;;4982637;28;20046;-67
2022/09/17 11:15:38;;;;;;;1.33;0.30;;;17.20;97.50;;;;;;4987681;28;20034;-67
2022/09/17 11:18:16;;;;;;;1.73;0.20;;;18.00;95.50;;;;;;4980140;28;20418;-67
2022/09/17 11:21:03;;;;;;;3.50;0.30;;;18.10;93.50;;;;;;4986125;28;20035;-67
2022/09/17 11:23:53;;;;;;;1.17;0.20;;;18.40;92.90;;;;;;4988002;28;20401;-67
2022/09/17 11:26:31;;;;;;;1.02;0.20;;;18.70;91.40;;;;;;4987343;28;20113;-66
2022/09/17 11:29:10;;;;;;;1.02;0.32;;;18.60;92.20;;;;;;4986429;28;20034;-67
2022/09/17 11:32:03;;;;;;;0.25;0.10;;;18.90;90.60;;;;;;4978405;28;20609;-66
2022/09/17 11:34:57;;;;;;;0.30;0.20;;;19.10;86.90;;;;;;4986859;28;20046;-65
2022/09/17 11:37:36;;;;;;;0.57;0.20;;;18.70;87.60;;;;;;4979260;28;20090;-65
2022/09/17 11:40:23;;;;;;;0.38;0.20;;;18.70;85.20;;;;;;4983214;28;20045;-67
2022/09/17 11:43:00;;;;;;;0.30;0.10;;;18.70;86.50;;;;;;4976898;28;20045;-67
2022/09/17 11:45:32;;;;;;;2.17;0.40;;;19.20;83.90;;;;;;4984034;28;20057;-68
2022/09/17 11:48:06;;;;;;;2.25;1.02;;;19.60;82.00;;;;;;4984995;28;20113;-67
2022/09/17 11:50:53;;;;;;;1.08;0.32;;;19.70;79.60;;;;;;4985028;28;20042;-67
2022/09/17 11:53:25;;;;;;;2.70;0.35;;;20.00;74.20;;;;;;4984268;28;20062;-68
2022/09/17 11:56:09;;;;;;;1.30;0.28;;;20.00;75.20;;;;;;4984417;28;20124;-67
2022/09/17 11:58:40;;;;;;;0.57;0.20;;;19.40;74.10;;;;;;4986754;28;20066;-67
2022/09/17 12:01:15;;;;;;;1.52;0.30;;;20.00;74.50;;;;;;4985787;28;20037;-67
2022/09/17 12:04:19;;;;;;;1.23;0.30;;;20.40;73.80;;;;;;4984295;28;20031;-67
2022/09/17 12:07:20;;;;;;;0.35;0.10;;;20.50;74.00;;;;;;4976048;28;20034;-67
2022/09/17 12:09:52;;;;;;;1.23;0.30;;;20.10;69.90;;;;;;4953190;28;20113;-68
2022/09/17 12:12:23;;;;;;;1.63;0.32;;;19.80;72.70;;;;;;4956400;28;20034;-67
2022/09/17 12:15:06;;;;;;;1.95;0.45;;;19.90;70.90;;;;;;4961235;28;20450;-67
2022/09/17 12:17:48;;;;;;;3.63;0.47;;;19.90;73.20;;;;;;4964120;28;20118;-67
2022/09/17 12:20:22;;;;;;;;;;;20.40;69.70;;;;;;4961686;28;20043;-67
2022/09/17 12:22:50;;;;;;;1.27;0.40;;;20.10;69.40;;;;;;4961387;28;19997;-67
2022/09/17 12:25:16;;;;;;;0.80;0.30;;;19.70;68.80;;;;;;4961480;28;20026;-69
2022/09/17 12:27:59;;;;;;;1.50;0.65;;;20.10;66.90;;;;;;4959167;28;20110;-68
2022/09/17 12:30:39;;;;;;;1.55;0.22;;;20.40;63.80;;;;;;4961038;28;20042;-68
2022/09/17 12:33:18;;;;;;;1.33;0.20;;;20.30;64.00;;;;;;4963502;28;20071;-68
2022/09/17 12:36:12;;;;;;;0.77;0.22;;;20.20;62.80;;;;;;4960474;28;20038;-68
2022/09/17 12:39:07;;;;;;;0.55;0.20;;;20.60;61.50;;;;;;4960311;28;20031;-68
2022/09/17 12:41:56;;;;;;;2.28;0.35;;;20.80;59.40;;;;;;4962512;28;20275;-68
2022/09/17 12:44:37;;;;;;;0.38;0.20;;;20.90;63.90;;;;;;4967708;28;20408;-68
2022/09/17 12:47:11;;;;;;;0.93;0.20;;;21.60;59.90;;;;;;4975018;28;20042;-68
2022/09/17 12:49:53;;;;;;;0.90;0.38;;;22.10;59.00;;;;;;4990119;28;20034;-68
2022/09/17 12:53:08;;;;;;;0.70;0.50;;;22.80;56.50;;;;;;4989153;28;20117;-68
2022/09/17 12:55:46;;;;;;;0.40;0.20;;;22.40;56.00;;;;;;4988662;28;20034;-68
2022/09/17 12:58:42;;;;;;;1.17;0.20;;;21.70;57.80;;;;;;4988532;28;20105;-68
2022/09/17 13:01:24;;;;;;;0.80;0.20;;;21.70;57.30;;;;;;4985420;28;20046;-68
2022/09/17 13:03:59;;;;;;;0.90;0.20;;;21.60;58.70;;;;;;4976291;28;20027;-68
2022/09/17 13:06:46;;;;;;;0.95;0.20;;;22.00;57.10;;;;;;4984858;28;20045;-67
2022/09/17 13:09:44;;;;;;;1.10;0.25;;;22.40;55.90;;;;;;4985958;28;20118;-66
2022/09/17 13:12:24;;;;;;;0.65;0.28;;;22.20;55.20;;;;;;4981468;28;20156;-68
2022/09/17 13:15:22;;;;;;;2.38;0.28;;;21.50;55.70;;;;;;4977379;28;20038;-69
2022/09/17 13:18:23;;;;;;;1.73;0.20;;;21.20;57.30;;;;;;4978678;28;20022;-67
2022/09/17 13:20:52;;;;;;;0.30;0.10;;;21.40;56.30;;;;;;4966634;28;20423;-67
2022/09/17 13:23:33;;;;;;;1.17;0.20;;;22.40;55.20;;;;;;4987963;28;20041;-67
2022/09/17 13:26:03;;;;;;;4.07;0.50;;;22.80;54.30;;;;;;4987840;28;20093;-67
2022/09/17 13:28:41;;;;;;;0.60;0.22;;;22.10;54.50;;;;;;4989724;28;20466;-67